Terminal Aerodrome Forecast
Issued by NWS

Current Version | Previous Version | Graphics & Text | Print | Product List | Glossary On
Versions: 1 2 3 4 5 6 7 8 9 10 11 12 13 14 15 16 17 18 19 20 21
000
FTUS41 KPBZ 181139
TAFHLG
TAF
KHLG 181139Z 1812/1912 00000KT 2SM BR SCT002
      TEMPO 1812/1813 1/4SM FG VV002
     FM181330 00000KT P6SM SCT025
     FM181700 VRB03KT P6SM BKN045
     FM190100 VRB03KT P6SM SCT150
     FM190700 00000KT 2SM BR SCT150=

USA.gov is the U.S. government's official web portal to all federal, state and local government web resources and services.